sensor_id;sensor_type;location;lat;lon;timestamp;pressure;altitude;pressure_sealevel;temperature;humidity
15314;BME280;7757;52.626;4.746;2023-03-05T00:00:17;102127.41;;;14.25;59.28
15314;BME280;7757;52.626;4.746;2023-03-05T00:03:03;102113.78;;;14.26;60.42
15314;BME280;7757;52.626;4.746;2023-03-05T00:05:48;102109.78;;;14.22;59.39
15314;BME280;7757;52.626;4.746;2023-03-05T00:08:35;102116.81;;;14.23;59.90
15314;BME280;7757;52.626;4.746;2023-03-05T00:11:20;102109.59;;;14.24;59.41
15314;BME280;7757;52.626;4.746;2023-03-05T00:14:07;102111.44;;;14.23;60.20
15314;BME280;7757;52.626;4.746;2023-03-05T00:16:52;102103.19;;;14.25;59.37
15314;BME280;7757;52.626;4.746;2023-03-05T00:19:40;102102.34;;;14.24;59.03
15314;BME280;7757;52.626;4.746;2023-03-05T00:22:25;102094.66;;;14.21;58.93
15314;BME280;7757;52.626;4.746;2023-03-05T00:25:12;102099.88;;;14.23;59.96
15314;BME280;7757;52.626;4.746;2023-03-05T00:27:57;102095.50;;;14.22;59.15
15314;BME280;7757;52.626;4.746;2023-03-05T00:30:43;102093.81;;;14.21;59.82
15314;BME280;7757;52.626;4.746;2023-03-05T00:33:28;102086.09;;;14.18;59.86
15314;BME280;7757;52.626;4.746;2023-03-05T00:36:14;102092.78;;;14.22;60.07
15314;BME280;7757;52.626;4.746;2023-03-05T00:38:59;102089.25;;;14.21;60.03
15314;BME280;7757;52.626;4.746;2023-03-05T00:41:46;102103.56;;;14.22;60.05
15314;BME280;7757;52.626;4.746;2023-03-05T00:44:32;102094.00;;;14.19;59.52
15314;BME280;7757;52.626;4.746;2023-03-05T00:47:17;102097.34;;;14.21;59.28
15314;BME280;7757;52.626;4.746;2023-03-05T00:50:04;102102.91;;;14.20;59.88
15314;BME280;7757;52.626;4.746;2023-03-05T00:52:49;102097.88;;;14.17;59.64
15314;BME280;7757;52.626;4.746;2023-03-05T00:55:35;102087.94;;;14.17;60.28
15314;BME280;7757;52.626;4.746;2023-03-05T00:58:21;102077.16;;;14.17;58.75
15314;BME280;7757;52.626;4.746;2023-03-05T01:01:07;102063.91;;;14.16;59.97
15314;BME280;7757;52.626;4.746;2023-03-05T01:03:53;102068.09;;;14.18;59.97
15314;BME280;7757;52.626;4.746;2023-03-05T01:06:41;102058.69;;;14.14;59.28
15314;BME280;7757;52.626;4.746;2023-03-05T01:09:27;102063.72;;;14.17;59.06
15314;BME280;7757;52.626;4.746;2023-03-05T01:12:13;102048.28;;;14.11;59.42
15314;BME280;7757;52.626;4.746;2023-03-05T01:15:00;102058.53;;;14.16;59.79
15314;BME280;7757;52.626;4.746;2023-03-05T01:17:45;102052.97;;;14.17;59.98
15314;BME280;7757;52.626;4.746;2023-03-05T01:20:31;102043.59;;;14.13;59.40
15314;BME280;7757;52.626;4.746;2023-03-05T01:23:17;102048.63;;;14.16;59.87
15314;BME280;7757;52.626;4.746;2023-03-05T01:26:03;102033.00;;;14.12;59.80
15314;BME280;7757;52.626;4.746;2023-03-05T01:28:49;102033.84;;;14.12;58.81
15314;BME280;7757;52.626;4.746;2023-03-05T01:31:36;102031.78;;;14.14;59.83
15314;BME280;7757;52.626;4.746;2023-03-05T01:34:21;102026.41;;;14.14;59.15
15314;BME280;7757;52.626;4.746;2023-03-05T01:37:06;102033.66;;;14.14;60.10
15314;BME280;7757;52.626;4.746;2023-03-05T01:39:52;101967.31;;;13.83;59.18
15314;BME280;7757;52.626;4.746;2023-03-05T01:42:37;102022.06;;;14.13;59.69
15314;BME280;7757;52.626;4.746;2023-03-05T01:45:23;102011.66;;;14.10;59.70
15314;BME280;7757;52.626;4.746;2023-03-05T01:48:09;102011.66;;;14.10;60.38
15314;BME280;7757;52.626;4.746;2023-03-05T01:50:55;102020.38;;;14.12;59.45
15314;BME280;7757;52.626;4.746;2023-03-05T01:53:42;102017.88;;;14.11;59.44
15314;BME280;7757;52.626;4.746;2023-03-05T01:56:28;102011.03;;;14.08;60.41
15314;BME280;7757;52.626;4.746;2023-03-05T01:59:15;102006.94;;;14.12;58.81
15314;BME280;7757;52.626;4.746;2023-03-05T02:02:01;101995.69;;;14.09;59.18
15314;BME280;7757;52.626;4.746;2023-03-05T02:04:50;101993.19;;;14.07;60.16
15314;BME280;7757;52.626;4.746;2023-03-05T02:07:37;101992.00;;;14.10;59.50
15314;BME280;7757;52.626;4.746;2023-03-05T02:10:26;101980.94;;;14.05;60.05
15314;BME280;7757;52.626;4.746;2023-03-05T02:13:14;101980.59;;;14.08;59.62
15314;BME280;7757;52.626;4.746;2023-03-05T02:16:01;101977.22;;;14.06;59.60
15314;BME280;7757;52.626;4.746;2023-03-05T02:18:49;101974.84;;;14.11;60.48
15314;BME280;7757;52.626;4.746;2023-03-05T02:21:39;101957.38;;;14.07;59.86
15314;BME280;7757;52.626;4.746;2023-03-05T02:24:34;101954.88;;;14.05;59.43
15314;BME280;7757;52.626;4.746;2023-03-05T02:27:21;101959.91;;;14.08;60.15
15314;BME280;7757;52.626;4.746;2023-03-05T02:30:11;101956.19;;;14.09;59.34
15314;BME280;7757;52.626;4.746;2023-03-05T02:32:57;101959.06;;;14.08;59.65
15314;BME280;7757;52.626;4.746;2023-03-05T02:35:43;101944.94;;;14.06;59.79
15314;BME280;7757;52.626;4.746;2023-03-05T02:38:30;101927.88;;;13.98;59.74
15314;BME280;7757;52.626;4.746;2023-03-05T02:41:15;101937.91;;;14.05;58.85
15314;BME280;7757;52.626;4.746;2023-03-05T02:44:01;101930.47;;;14.07;59.52
15314;BME280;7757;52.626;4.746;2023-03-05T02:46:46;101910.91;;;13.98;59.31
15314;BME280;7757;52.626;4.746;2023-03-05T02:49:32;101908.47;;;14.03;59.91
15314;BME280;7757;52.626;4.746;2023-03-05T02:52:17;101913.88;;;14.03;59.84
15314;BME280;7757;52.626;4.746;2023-03-05T02:55:05;101912.66;;;14.06;58.90
15314;BME280;7757;52.626;4.746;2023-03-05T02:57:51;101916.91;;;14.00;59.60
15314;BME280;7757;52.626;4.746;2023-03-05T03:00:36;101902.25;;;14.03;59.38
15314;BME280;7757;52.626;4.746;2023-03-05T03:03:22;101905.78;;;14.03;59.48
15314;BME280;7757;52.626;4.746;2023-03-05T03:06:07;101904.31;;;14.01;59.33
15314;BME280;7757;52.626;4.746;2023-03-05T03:08:52;101896.88;;;14.03;59.88
15314;BME280;7757;52.626;4.746;2023-03-05T03:11:39;101896.25;;;14.01;60.62
15314;BME280;7757;52.626;4.746;2023-03-05T03:14:25;101898.75;;;14.02;59.58
15314;BME280;7757;52.626;4.746;2023-03-05T03:17:12;101880.31;;;13.99;60.04
15314;BME280;7757;52.626;4.746;2023-03-05T03:19:59;101885.47;;;14.01;59.19
15314;BME280;7757;52.626;4.746;2023-03-05T03:22:46;101876.78;;;13.98;59.82
15314;BME280;7757;52.626;4.746;2023-03-05T03:25:31;101877.41;;;14.01;60.06
15314;BME280;7757;52.626;4.746;2023-03-05T03:28:18;101873.03;;;13.99;59.71
15314;BME280;7757;52.626;4.746;2023-03-05T03:31:03;101869.53;;;13.99;59.46
15314;BME280;7757;52.626;4.746;2023-03-05T03:33:49;101863.31;;;13.98;59.99
15314;BME280;7757;52.626;4.746;2023-03-05T03:36:34;101864.34;;;13.97;59.65
15314;BME280;7757;52.626;4.746;2023-03-05T03:39:20;101857.19;;;13.90;60.17
15314;BME280;7757;52.626;4.746;2023-03-05T03:42:06;101868.88;;;13.97;59.29
15314;BME280;7757;52.626;4.746;2023-03-05T03:44:52;101865.34;;;13.96;59.45
15314;BME280;7757;52.626;4.746;2023-03-05T03:47:37;101871.75;;;13.95;58.77
15314;BME280;7757;52.626;4.746;2023-03-05T03:50:23;101861.16;;;13.94;59.57
15314;BME280;7757;52.626;4.746;2023-03-05T03:53:09;101864.06;;;13.92;59.93
15314;BME280;7757;52.626;4.746;2023-03-05T03:55:57;101862.84;;;13.95;60.05
15314;BME280;7757;52.626;4.746;2023-03-05T03:58:43;101850.59;;;13.92;59.29
15314;BME280;7757;52.626;4.746;2023-03-05T04:01:29;101851.44;;;13.93;59.76
15314;BME280;7757;52.626;4.746;2023-03-05T04:04:15;101842.34;;;13.94;59.96
15314;BME280;7757;52.626;4.746;2023-03-05T04:07:00;101837.81;;;13.94;59.27
15314;BME280;7757;52.626;4.746;2023-03-05T04:09:46;101833.44;;;13.93;58.73
15314;BME280;7757;52.626;4.746;2023-03-05T04:12:31;101830.75;;;13.93;59.08
15314;BME280;7757;52.626;4.746;2023-03-05T04:15:16;101830.94;;;13.92;58.79
15314;BME280;7757;52.626;4.746;2023-03-05T04:18:03;101827.25;;;13.93;59.92
15314;BME280;7757;52.626;4.746;2023-03-05T04:20:49;101826.13;;;13.87;59.92
15314;BME280;7757;52.626;4.746;2023-03-05T04:23:34;101825.75;;;13.90;59.52
15314;BME280;7757;52.626;4.746;2023-03-05T04:26:19;101817.69;;;13.90;59.70
15314;BME280;7757;52.626;4.746;2023-03-05T04:29:05;101819.34;;;13.91;58.97
15314;BME280;7757;52.626;4.746;2023-03-05T04:31:50;101816.84;;;13.90;59.56
15314;BME280;7757;52.626;4.746;2023-03-05T04:34:37;101808.13;;;13.88;60.53
15314;BME280;7757;52.626;4.746;2023-03-05T04:37:22;101815.38;;;13.87;59.35
15314;BME280;7757;52.626;4.746;2023-03-05T04:40:09;101810.00;;;13.87;60.58
15314;BME280;7757;52.626;4.746;2023-03-05T04:42:54;101806.25;;;13.88;60.05
15314;BME280;7757;52.626;4.746;2023-03-05T04:45:40;101807.84;;;13.83;59.76
15314;BME280;7757;52.626;4.746;2023-03-05T04:48:26;101810.00;;;13.87;60.06
15314;BME280;7757;52.626;4.746;2023-03-05T04:51:13;101804.16;;;13.84;60.56
15314;BME280;7757;52.626;4.746;2023-03-05T04:53:58;101806.63;;;13.85;59.83
15314;BME280;7757;52.626;4.746;2023-03-05T04:56:44;101798.56;;;13.85;59.49
15314;BME280;7757;52.626;4.746;2023-03-05T04:59:29;101787.63;;;13.87;59.83
15314;BME280;7757;52.626;4.746;2023-03-05T05:02:14;101780.31;;;13.81;59.44
15314;BME280;7757;52.626;4.746;2023-03-05T05:05:00;101786.16;;;13.84;59.97
15314;BME280;7757;52.626;4.746;2023-03-05T05:07:47;101790.69;;;13.84;60.54
15314;BME280;7757;52.626;4.746;2023-03-05T05:10:36;101797.09;;;13.83;59.75
15314;BME280;7757;52.626;4.746;2023-03-05T05:13:22;101791.53;;;13.84;59.24
15314;BME280;7757;52.626;4.746;2023-03-05T05:16:08;101775.09;;;13.79;59.57
15314;BME280;7757;52.626;4.746;2023-03-05T05:18:53;101778.63;;;13.80;60.05
15314;BME280;7757;52.626;4.746;2023-03-05T05:21:39;101773.09;;;13.81;59.29
15314;BME280;7757;52.626;4.746;2023-03-05T05:24:26;101774.25;;;13.79;60.08
15314;BME280;7757;52.626;4.746;2023-03-05T05:27:13;101777.41;;;13.82;59.95
15314;BME280;7757;52.626;4.746;2023-03-05T05:29:58;101769.09;;;13.77;59.98
15314;BME280;7757;52.626;4.746;2023-03-05T05:32:44;101766.38;;;13.77;59.33
15314;BME280;7757;52.626;4.746;2023-03-05T05:35:31;101766.75;;;13.74;59.23
15314;BME280;7757;52.626;4.746;2023-03-05T05:38:17;101769.91;;;13.78;59.53
15314;BME280;7757;52.626;4.746;2023-03-05T05:41:05;101764.53;;;13.78;60.58
15314;BME280;7757;52.626;4.746;2023-03-05T05:43:50;101768.25;;;13.77;59.74
15314;BME280;7757;52.626;4.746;2023-03-05T05:46:36;101763.88;;;13.76;58.83
15314;BME280;7757;52.626;4.746;2023-03-05T05:49:21;101761.19;;;13.76;59.92
15314;BME280;7757;52.626;4.746;2023-03-05T05:52:07;101760.53;;;13.74;60.10
15314;BME280;7757;52.626;4.746;2023-03-05T05:54:52;101755.81;;;13.76;60.54
15314;BME280;7757;52.626;4.746;2023-03-05T05:57:39;101752.47;;;13.74;60.01
15314;BME280;7757;52.626;4.746;2023-03-05T06:00:24;101748.31;;;13.71;58.75
15314;BME280;7757;52.626;4.746;2023-03-05T06:03:09;101745.41;;;13.73;59.64
15314;BME280;7757;52.626;4.746;2023-03-05T06:05:55;101744.59;;;13.72;59.81
15314;BME280;7757;52.626;4.746;2023-03-05T06:08:41;101741.09;;;13.72;59.27
15314;BME280;7757;52.626;4.746;2023-03-05T06:11:27;101743.78;;;13.72;59.05
15314;BME280;7757;52.626;4.746;2023-03-05T06:14:14;101745.63;;;13.71;59.58
15314;BME280;7757;52.626;4.746;2023-03-05T06:16:59;101746.47;;;13.72;59.21
15314;BME280;7757;52.626;4.746;2023-03-05T06:19:45;101745.63;;;13.71;59.85
15314;BME280;7757;52.626;4.746;2023-03-05T06:22:30;101736.72;;;13.71;59.47
15314;BME280;7757;52.626;4.746;2023-03-05T06:25:16;101746.47;;;13.72;59.99
15314;BME280;7757;52.626;4.746;2023-03-05T06:28:01;101729.84;;;13.68;59.69
15314;BME280;7757;52.626;4.746;2023-03-05T06:30:48;101734.88;;;13.71;59.40
15314;BME280;7757;52.626;4.746;2023-03-05T06:33:34;101733.84;;;13.72;59.26
15314;BME280;7757;52.626;4.746;2023-03-05T06:36:20;101731.16;;;13.72;58.45
15314;BME280;7757;52.626;4.746;2023-03-05T06:39:06;101736.53;;;13.72;58.89
15314;BME280;7757;52.626;4.746;2023-03-05T06:41:51;101739.88;;;13.74;59.25
15314;BME280;7757;52.626;4.746;2023-03-05T06:44:38;101733.19;;;13.70;59.07
15314;BME280;7757;52.626;4.746;2023-03-05T06:47:24;101750.44;;;13.76;59.28
15314;BME280;7757;52.626;4.746;2023-03-05T06:50:11;101744.25;;;13.75;59.69
15314;BME280;7757;52.626;4.746;2023-03-05T06:52:56;101743.56;;;13.73;59.41
15314;BME280;7757;52.626;4.746;2023-03-05T06:55:41;101744.25;;;13.75;59.59
15314;BME280;7757;52.626;4.746;2023-03-05T06:58:28;101745.88;;;13.76;59.12
15314;BME280;7757;52.626;4.746;2023-03-05T07:01:14;101731.34;;;13.71;59.52
15314;BME280;7757;52.626;4.746;2023-03-05T07:04:01;101738.19;;;13.73;58.56
15314;BME280;7757;52.626;4.746;2023-03-05T07:06:47;101738.50;;;13.78;58.61
15314;BME280;7757;52.626;4.746;2023-03-05T07:09:33;101739.13;;;13.80;59.32
15314;BME280;7757;52.626;4.746;2023-03-05T07:12:18;101735.44;;;13.81;59.52
15314;BME280;7757;52.626;4.746;2023-03-05T07:15:04;101731.72;;;13.82;58.90
15314;BME280;7757;52.626;4.746;2023-03-05T07:17:50;101727.81;;;13.85;58.96
15314;BME280;7757;52.626;4.746;2023-03-05T07:20:37;101730.34;;;13.86;59.82
15314;BME280;7757;52.626;4.746;2023-03-05T07:23:22;101731.63;;;13.90;59.13
15314;BME280;7757;52.626;4.746;2023-03-05T07:26:07;101726.25;;;13.90;58.54
15314;BME280;7757;52.626;4.746;2023-03-05T07:28:53;101725.84;;;13.93;58.55
15314;BME280;7757;52.626;4.746;2023-03-05T07:31:39;101708.63;;;13.88;58.43
15314;BME280;7757;52.626;4.746;2023-03-05T07:34:24;101731.06;;;14.10;58.90
15314;BME280;7757;52.626;4.746;2023-03-05T07:37:12;101720.56;;;14.15;58.27
15314;BME280;7757;52.626;4.746;2023-03-05T07:39:57;101723.22;;;14.29;57.56
15314;BME280;7757;52.626;4.746;2023-03-05T07:42:43;101711.25;;;14.32;57.97
15314;BME280;7757;52.626;4.746;2023-03-05T07:45:28;101724.66;;;14.40;58.02
15314;BME280;7757;52.626;4.746;2023-03-05T07:48:15;101720.66;;;14.36;57.83
15314;BME280;7757;52.626;4.746;2023-03-05T07:51:05;101718.81;;;14.36;57.16
15314;BME280;7757;52.626;4.746;2023-03-05T07:53:55;101697.28;;;14.22;57.71
15314;BME280;7757;52.626;4.746;2023-03-05T07:56:41;101722.50;;;14.35;58.02
15314;BME280;7757;52.626;4.746;2023-03-05T07:59:27;101713.41;;;14.36;58.17
15314;BME280;7757;52.626;4.746;2023-03-05T08:02:13;101719.16;;;14.48;57.61
15314;BME280;7757;52.626;4.746;2023-03-05T08:04:58;101720.69;;;14.57;57.14
15314;BME280;7757;52.626;4.746;2023-03-05T08:07:44;101712.50;;;14.65;56.82
15314;BME280;7757;52.626;4.746;2023-03-05T08:10:30;101704.25;;;14.67;57.18
15314;BME280;7757;52.626;4.746;2023-03-05T08:13:15;101716.34;;;14.77;56.46
15314;BME280;7757;52.626;4.746;2023-03-05T08:16:03;101709.81;;;14.86;57.42
15314;BME280;7757;52.626;4.746;2023-03-05T08:18:53;101706.53;;;14.91;56.85
15314;BME280;7757;52.626;4.746;2023-03-05T08:21:39;101710.34;;;14.96;56.24
15314;BME280;7757;52.626;4.746;2023-03-05T08:24:26;101700.00;;;15.00;56.94
15314;BME280;7757;52.626;4.746;2023-03-05T08:27:14;101696.47;;;14.99;57.19
15314;BME280;7757;52.626;4.746;2023-03-05T08:30:00;101687.25;;;15.08;56.39
15314;BME280;7757;52.626;4.746;2023-03-05T08:32:47;101681.66;;;15.10;56.19
15314;BME280;7757;52.626;4.746;2023-03-05T08:35:32;101691.03;;;15.21;56.18
15314;BME280;7757;52.626;4.746;2023-03-05T08:38:18;101694.19;;;15.24;55.95
15314;BME280;7757;52.626;4.746;2023-03-05T08:41:04;101688.34;;;15.21;56.62
15314;BME280;7757;52.626;4.746;2023-03-05T08:43:50;101685.88;;;15.19;56.31
15314;BME280;7757;52.626;4.746;2023-03-05T08:46:38;101692.72;;;15.22;56.00
15314;BME280;7757;52.626;4.746;2023-03-05T08:49:23;101682.16;;;15.20;55.64
15314;BME280;7757;52.626;4.746;2023-03-05T08:52:09;101680.25;;;15.21;55.57
15314;BME280;7757;52.626;4.746;2023-03-05T08:54:55;101683.41;;;15.24;56.37
15314;BME280;7757;52.626;4.746;2023-03-05T08:57:40;101680.09;;;15.22;55.92
15314;BME280;7757;52.626;4.746;2023-03-05T09:00:27;101678.47;;;15.28;55.99
15314;BME280;7757;52.626;4.746;2023-03-05T09:03:12;101669.53;;;15.27;55.48
15314;BME280;7757;52.626;4.746;2023-03-05T09:05:59;101681.84;;;15.36;55.46
15314;BME280;7757;52.626;4.746;2023-03-05T09:08:45;101676.69;;;15.41;56.20
15314;BME280;7757;52.626;4.746;2023-03-05T09:11:30;101673.38;;;15.39;56.10
15314;BME280;7757;52.626;4.746;2023-03-05T09:14:19;101675.88;;;15.41;56.23
15314;BME280;7757;52.626;4.746;2023-03-05T09:17:06;101675.03;;;15.40;56.05
15314;BME280;7757;52.626;4.746;2023-03-05T09:19:51;101664.00;;;15.35;55.15
15314;BME280;7757;52.626;4.746;2023-03-05T09:22:36;101671.69;;;15.38;55.53
15314;BME280;7757;52.626;4.746;2023-03-05T09:25:22;101664.84;;;15.36;55.79
15314;BME280;7757;52.626;4.746;2023-03-05T09:28:07;101670.66;;;15.39;56.00
15314;BME280;7757;52.626;4.746;2023-03-05T09:30:53;101677.34;;;15.43;55.35
15314;BME280;7757;52.626;4.746;2023-03-05T09:33:40;101669.25;;;15.43;55.94
15314;BME280;7757;52.626;4.746;2023-03-05T09:36:27;101658.66;;;15.42;55.17
15314;BME280;7757;52.626;4.746;2023-03-05T09:39:12;101661.16;;;15.43;56.00
15314;BME280;7757;52.626;4.746;2023-03-05T09:42:12;101654.06;;;15.36;55.87
15314;BME280;7757;52.626;4.746;2023-03-05T09:45:08;101657.34;;;15.31;55.66
15314;BME280;7757;52.626;4.746;2023-03-05T09:48:03;101656.13;;;15.34;55.68
15314;BME280;7757;52.626;4.746;2023-03-05T09:50:55;101652.41;;;15.35;56.39
15314;BME280;7757;52.626;4.746;2023-03-05T09:53:46;101659.84;;;15.33;56.57
15314;BME280;7757;52.626;4.746;2023-03-05T09:56:35;101656.16;;;15.40;56.23
15314;BME280;7757;52.626;4.746;2023-03-05T09:59:26;101650.13;;;15.38;56.32
15314;BME280;7757;52.626;4.746;2023-03-05T10:02:17;101656.75;;;15.36;56.54
15314;BME280;7757;52.626;4.746;2023-03-05T10:05:12;101650.56;;;15.42;56.09
15314;BME280;7757;52.626;4.746;2023-03-05T10:08:03;101648.53;;;15.44;55.42
15314;BME280;7757;52.626;4.746;2023-03-05T10:10:51;101638.09;;;15.34;55.56
15314;BME280;7757;52.626;4.746;2023-03-05T10:13:39;101639.56;;;15.37;56.32
15314;BME280;7757;52.626;4.746;2023-03-05T10:19:56;101638.28;;;15.33;56.80
15314;BME280;7757;52.626;4.746;2023-03-05T10:26:29;101626.41;;;15.27;56.74
15314;BME280;7757;52.626;4.746;2023-03-05T10:29:34;101625.00;;;15.31;55.89
15314;BME280;7757;52.626;4.746;2023-03-05T10:32:32;101625.44;;;15.35;56.73
15314;BME280;7757;52.626;4.746;2023-03-05T10:35:38;101609.47;;;15.33;56.50
15314;BME280;7757;52.626;4.746;2023-03-05T10:38:41;101608.22;;;15.36;55.97
15314;BME280;7757;52.626;4.746;2023-03-05T10:41:36;101608.63;;;15.33;56.20
15314;BME280;7757;52.626;4.746;2023-03-05T10:44:31;101610.31;;;15.34;56.42
15314;BME280;7757;52.626;4.746;2023-03-05T10:47:23;101610.31;;;15.34;56.13
15314;BME280;7757;52.626;4.746;2023-03-05T10:50:15;101600.59;;;15.39;56.51
15314;BME280;7757;52.626;4.746;2023-03-05T10:53:09;101591.47;;;15.40;55.81
15314;BME280;7757;52.626;4.746;2023-03-05T10:56:00;101593.34;;;15.40;55.60
15314;BME280;7757;52.626;4.746;2023-03-05T10:58:47;101584.75;;;15.30;56.11
15314;BME280;7757;52.626;4.746;2023-03-05T11:01:32;101584.19;;;15.34;56.45
15314;BME280;7757;52.626;4.746;2023-03-05T11:04:29;101576.94;;;15.35;56.02
15314;BME280;7757;52.626;4.746;2023-03-05T11:07:34;101570.50;;;15.36;56.39
15314;BME280;7757;52.626;4.746;2023-03-05T11:10:20;101580.69;;;15.40;55.97
15314;BME280;7757;52.626;4.746;2023-03-05T11:13:20;101575.38;;;15.47;56.47
15314;BME280;7757;52.626;4.746;2023-03-05T11:16:15;101566.81;;;15.43;56.83
15314;BME280;7757;52.626;4.746;2023-03-05T11:19:17;101565.41;;;15.47;55.63
15314;BME280;7757;52.626;4.746;2023-03-05T11:22:15;101554.63;;;15.47;56.27
15314;BME280;7757;52.626;4.746;2023-03-05T11:25:12;101550.84;;;15.42;56.31
15314;BME280;7757;52.626;4.746;2023-03-05T11:27:59;101556.28;;;15.48;56.31
15314;BME280;7757;52.626;4.746;2023-03-05T11:30:54;101550.06;;;15.48;57.02
15314;BME280;7757;52.626;4.746;2023-03-05T11:33:54;101544.72;;;15.54;55.71
15314;BME280;7757;52.626;4.746;2023-03-05T11:36:41;101543.88;;;15.54;55.58
15314;BME280;7757;52.626;4.746;2023-03-05T11:39:27;101539.94;;;15.56;56.63
15314;BME280;7757;52.626;4.746;2023-03-05T11:42:17;101537.06;;;15.58;55.72
15314;BME280;7757;52.626;4.746;2023-03-05T11:45:14;101520.88;;;15.58;55.87
15314;BME280;7757;52.626;4.746;2023-03-05T11:48:07;101527.91;;;15.59;56.52
15314;BME280;7757;52.626;4.746;2023-03-05T11:50:58;101517.78;;;15.61;56.36
15314;BME280;7757;52.626;4.746;2023-03-05T11:53:46;101513.00;;;15.63;55.75
15314;BME280;7757;52.626;4.746;2023-03-05T11:56:35;101504.72;;;15.65;55.54
15314;BME280;7757;52.626;4.746;2023-03-05T11:59:27;101501.63;;;15.68;56.41
15314;BME280;7757;52.626;4.746;2023-03-05T12:02:16;101503.69;;;15.72;55.78
15314;BME280;7757;52.626;4.746;2023-03-05T12:05:04;101491.88;;;15.67;56.16
15314;BME280;7757;52.626;4.746;2023-03-05T12:07:53;101483.78;;;15.67;55.74
15314;BME280;7757;52.626;4.746;2023-03-05T12:10:39;101490.59;;;15.62;55.57
15314;BME280;7757;52.626;4.746;2023-03-05T12:13:28;101480.22;;;15.59;56.03
15314;BME280;7757;52.626;4.746;2023-03-05T12:16:21;101487.28;;;15.60;55.98
15314;BME280;7757;52.626;4.746;2023-03-05T12:19:26;101483.56;;;15.61;55.65
15314;BME280;7757;52.626;4.746;2023-03-05T12:22:16;101469.28;;;15.68;55.54
15314;BME280;7757;52.626;4.746;2023-03-05T12:25:23;101461.38;;;15.73;56.33
15314;BME280;7757;52.626;4.746;2023-03-05T12:28:12;101459.72;;;15.72;55.70
15314;BME280;7757;52.626;4.746;2023-03-05T12:31:00;101450.38;;;15.68;56.04
15314;BME280;7757;52.626;4.746;2023-03-05T12:33:45;101445.22;;;15.73;56.19
15314;BME280;7757;52.626;4.746;2023-03-05T12:36:35;101449.16;;;15.70;55.46
15314;BME280;7757;52.626;4.746;2023-03-05T12:39:45;101433.38;;;15.67;56.49
15314;BME280;7757;52.626;4.746;2023-03-05T12:42:54;101436.25;;;15.66;56.27
15314;BME280;7757;52.626;4.746;2023-03-05T12:45:40;101429.41;;;15.63;56.18
15314;BME280;7757;52.626;4.746;2023-03-05T12:48:44;101425.47;;;15.66;56.16
15314;BME280;7757;52.626;4.746;2023-03-05T12:51:35;101418.44;;;15.65;55.50
15314;BME280;7757;52.626;4.746;2023-03-05T12:54:26;101417.19;;;15.67;55.76
15314;BME280;7757;52.626;4.746;2023-03-05T12:57:16;101399.34;;;15.66;55.70
15314;BME280;7757;52.626;4.746;2023-03-05T13:00:06;101410.75;;;15.75;55.82
15314;BME280;7757;52.626;4.746;2023-03-05T13:02:55;101401.22;;;15.72;56.52
15314;BME280;7757;52.626;4.746;2023-03-05T13:05:48;101397.28;;;15.75;56.53
15314;BME280;7757;52.626;4.746;2023-03-05T13:08:34;101394.16;;;15.71;56.07
15314;BME280;7757;52.626;4.746;2023-03-05T13:11:21;101389.19;;;15.75;55.87
15314;BME280;7757;52.626;4.746;2023-03-05T13:14:27;101395.63;;;15.80;55.83
15314;BME280;7757;52.626;4.746;2023-03-05T13:17:32;101379.03;;;15.63;55.47
15314;BME280;7757;52.626;4.746;2023-03-05T13:20:28;101382.34;;;15.72;56.27
15314;BME280;7757;52.626;4.746;2023-03-05T13:23:20;101381.09;;;15.75;56.21
15314;BME280;7757;52.626;4.746;2023-03-05T13:26:10;101380.47;;;15.73;55.92
15314;BME280;7757;52.626;4.746;2023-03-05T13:29:10;101381.94;;;15.75;55.95
15314;BME280;7757;52.626;4.746;2023-03-05T13:31:57;101374.44;;;15.77;55.57
15314;BME280;7757;52.626;4.746;2023-03-05T13:34:45;101367.00;;;15.73;55.50
15314;BME280;7757;52.626;4.746;2023-03-05T13:37:36;101369.28;;;15.76;55.98
15314;BME280;7757;52.626;4.746;2023-03-05T13:40:24;101364.72;;;15.70;56.29
15314;BME280;7757;52.626;4.746;2023-03-05T13:43:10;101363.88;;;15.62;56.60
15314;BME280;7757;52.626;4.746;2023-03-05T13:45:56;101360.97;;;15.71;55.92
15314;BME280;7757;52.626;4.746;2023-03-05T13:48:42;101354.94;;;15.69;55.96
15314;BME280;7757;52.626;4.746;2023-03-05T13:51:41;101355.16;;;15.74;56.10
15314;BME280;7757;52.626;4.746;2023-03-05T13:54:28;101357.25;;;15.78;56.20
15314;BME280;7757;52.626;4.746;2023-03-05T13:57:32;101353.31;;;15.81;55.80
15314;BME280;7757;52.626;4.746;2023-03-05T14:00:29;101348.31;;;15.78;55.15
15314;BME280;7757;52.626;4.746;2023-03-05T14:03:20;101357.25;;;15.78;56.15
15314;BME280;7757;52.626;4.746;2023-03-05T14:06:08;101342.94;;;15.78;55.32
15314;BME280;7757;52.626;4.746;2023-03-05T14:09:00;101353.53;;;15.79;55.99
15314;BME280;7757;52.626;4.746;2023-03-05T14:11:55;101341.25;;;15.77;55.44
15314;BME280;7757;52.626;4.746;2023-03-05T14:14:42;101341.69;;;15.80;55.09
15314;BME280;7757;52.626;4.746;2023-03-05T14:17:37;101345.63;;;15.84;55.23
15314;BME280;7757;52.626;4.746;2023-03-05T14:20:25;101330.47;;;15.77;56.36
15314;BME280;7757;52.626;4.746;2023-03-05T14:23:32;101328.19;;;15.74;56.17
15314;BME280;7757;52.626;4.746;2023-03-05T14:26:24;101328.41;;;15.79;56.23
15314;BME280;7757;52.626;4.746;2023-03-05T14:29:13;101321.97;;;15.80;55.81
15314;BME280;7757;52.626;4.746;2023-03-05T14:32:03;101311.81;;;15.75;55.60
15314;BME280;7757;52.626;4.746;2023-03-05T14:34:51;101311.81;;;15.69;56.07
15314;BME280;7757;52.626;4.746;2023-03-05T14:37:40;101294.81;;;15.55;55.77
15314;BME280;7757;52.626;4.746;2023-03-05T14:40:29;101295.22;;;15.58;56.63
15314;BME280;7757;52.626;4.746;2023-03-05T14:43:16;101289.19;;;15.63;56.83
15314;BME280;7757;52.626;4.746;2023-03-05T14:46:01;101277.81;;;15.61;55.66
15314;BME280;7757;52.626;4.746;2023-03-05T14:48:46;101281.34;;;15.61;56.27
15314;BME280;7757;52.626;4.746;2023-03-05T14:51:35;101277.16;;;15.59;55.94
15314;BME280;7757;52.626;4.746;2023-03-05T14:54:23;101274.06;;;15.62;55.83
15314;BME280;7757;52.626;4.746;2023-03-05T14:57:14;101262.22;;;15.56;55.98